sensor_id;sensor_type;location;lat;lon;timestamp;temperature;humidity
54540;SHT30;40438;52.992;18.604;2023-03-14T00:00:09;20.00;65.49
54540;SHT30;40438;52.992;18.604;2023-03-14T00:02:35;19.96;65.87
54540;SHT30;40438;52.992;18.604;2023-03-14T00:05:01;19.64;67.37
54540;SHT30;40438;52.992;18.604;2023-03-14T00:07:27;19.96;65.53
54540;SHT30;40438;52.992;18.604;2023-03-14T00:09:53;20.35;63.99
54540;SHT30;40438;52.992;18.604;2023-03-14T00:12:19;20.14;64.94
54540;SHT30;40438;52.992;18.604;2023-03-14T00:14:44;20.22;64.31
54540;SHT30;40438;52.992;18.604;2023-03-14T00:17:12;20.14;64.64
54540;SHT30;40438;52.992;18.604;2023-03-14T00:19:38;20.33;63.40
54540;SHT30;40438;52.992;18.604;2023-03-14T00:22:03;20.32;63.82
54540;SHT30;40438;52.992;18.604;2023-03-14T00:24:29;20.26;64.10
54540;SHT30;40438;52.992;18.604;2023-03-14T00:26:55;19.83;66.28
54540;SHT30;40438;52.992;18.604;2023-03-14T00:29:22;20.17;64.57
54540;SHT30;40438;52.992;18.604;2023-03-14T00:31:48;20.26;63.54
54540;SHT30;40438;52.992;18.604;2023-03-14T00:34:15;20.22;63.59
54540;SHT30;40438;52.992;18.604;2023-03-14T00:36:41;20.28;63.49
54540;SHT30;40438;52.992;18.604;2023-03-14T00:39:06;20.33;63.17
54540;SHT30;40438;52.992;18.604;2023-03-14T00:41:32;20.32;62.98
54540;SHT30;40438;52.992;18.604;2023-03-14T00:43:59;20.21;63.83
54540;SHT30;40438;52.992;18.604;2023-03-14T00:46:26;20.03;64.65
54540;SHT30;40438;52.992;18.604;2023-03-14T00:48:53;19.94;64.80
54540;SHT30;40438;52.992;18.604;2023-03-14T00:51:20;20.07;63.86
54540;SHT30;40438;52.992;18.604;2023-03-14T00:53:46;19.80;65.68
54540;SHT30;40438;52.992;18.604;2023-03-14T00:56:12;19.96;64.41
54540;SHT30;40438;52.992;18.604;2023-03-14T00:58:38;20.00;64.37
54540;SHT30;40438;52.992;18.604;2023-03-14T01:01:09;19.91;64.94
54540;SHT30;40438;52.992;18.604;2023-03-14T01:03:35;19.88;64.65
54540;SHT30;40438;52.992;18.604;2023-03-14T01:06:09;19.84;65.05
54540;SHT30;40438;52.992;18.604;2023-03-14T01:08:37;19.77;66.07
54540;SHT30;40438;52.992;18.604;2023-03-14T01:11:06;19.64;66.51
54540;SHT30;40438;52.992;18.604;2023-03-14T01:13:32;19.63;66.19
54540;SHT30;40438;52.992;18.604;2023-03-14T01:16:01;19.81;65.26
54540;SHT30;40438;52.992;18.604;2023-03-14T01:18:27;19.64;66.09
54540;SHT30;40438;52.992;18.604;2023-03-14T01:20:53;19.59;66.17
54540;SHT30;40438;52.992;18.604;2023-03-14T01:23:19;19.50;66.82
54540;SHT30;40438;52.992;18.604;2023-03-14T01:25:46;19.57;66.25
54540;SHT30;40438;52.992;18.604;2023-03-14T01:28:12;19.59;66.07
54540;SHT30;40438;52.992;18.604;2023-03-14T01:30:38;19.57;65.85
54540;SHT30;40438;52.992;18.604;2023-03-14T01:33:04;19.45;67.55
54540;SHT30;40438;52.992;18.604;2023-03-14T01:35:30;19.41;67.26
54540;SHT30;40438;52.992;18.604;2023-03-14T01:37:56;19.42;66.98
54540;SHT30;40438;52.992;18.604;2023-03-14T01:40:23;19.45;66.83
54540;SHT30;40438;52.992;18.604;2023-03-14T01:42:55;19.49;66.79
54540;SHT30;40438;52.992;18.604;2023-03-14T01:48:28;19.42;66.92
54540;SHT30;40438;52.992;18.604;2023-03-14T01:50:54;19.38;67.26
54540;SHT30;40438;52.992;18.604;2023-03-14T01:53:20;19.38;67.55
54540;SHT30;40438;52.992;18.604;2023-03-14T01:55:46;19.39;67.77
54540;SHT30;40438;52.992;18.604;2023-03-14T01:58:15;19.39;66.99
54540;SHT30;40438;52.992;18.604;2023-03-14T02:00:41;19.38;67.39
54540;SHT30;40438;52.992;18.604;2023-03-14T02:03:11;19.41;67.18
54540;SHT30;40438;52.992;18.604;2023-03-14T02:05:40;19.36;67.10
54540;SHT30;40438;52.992;18.604;2023-03-14T02:08:14;19.31;67.19
54540;SHT30;40438;52.992;18.604;2023-03-14T02:10:47;19.28;67.34
54540;SHT30;40438;52.992;18.604;2023-03-14T02:13:17;19.38;66.84
54540;SHT30;40438;52.992;18.604;2023-03-14T02:15:58;19.31;67.54
54540;SHT30;40438;52.992;18.604;2023-03-14T02:18:56;19.29;67.24
54540;SHT30;40438;52.992;18.604;2023-03-14T02:21:51;19.28;67.52
54540;SHT30;40438;52.992;18.604;2023-03-14T02:24:27;19.25;67.53
54540;SHT30;40438;52.992;18.604;2023-03-14T02:27:14;19.29;67.57
54540;SHT30;40438;52.992;18.604;2023-03-14T02:29:49;19.31;67.66
54540;SHT30;40438;52.992;18.604;2023-03-14T02:32:17;19.31;67.73
54540;SHT30;40438;52.992;18.604;2023-03-14T02:34:46;19.31;67.39
54540;SHT30;40438;52.992;18.604;2023-03-14T02:37:14;19.31;67.43
54540;SHT30;40438;52.992;18.604;2023-03-14T02:39:44;19.32;67.75
54540;SHT30;40438;52.992;18.604;2023-03-14T02:42:12;19.29;67.32
54540;SHT30;40438;52.992;18.604;2023-03-14T02:44:48;19.26;67.50
54540;SHT30;40438;52.992;18.604;2023-03-14T02:47:14;19.28;67.64
54540;SHT30;40438;52.992;18.604;2023-03-14T02:49:40;19.23;67.61
54540;SHT30;40438;52.992;18.604;2023-03-14T02:52:06;19.28;67.66
54540;SHT30;40438;52.992;18.604;2023-03-14T02:54:32;19.31;67.78
54540;SHT30;40438;52.992;18.604;2023-03-14T02:56:58;19.33;67.58
54540;SHT30;40438;52.992;18.604;2023-03-14T02:59:25;19.33;67.57
54540;SHT30;40438;52.992;18.604;2023-03-14T03:01:55;19.31;67.41
54540;SHT30;40438;52.992;18.604;2023-03-14T03:04:21;19.22;67.55
54540;SHT30;40438;52.992;18.604;2023-03-14T03:06:47;19.23;67.50
54540;SHT30;40438;52.992;18.604;2023-03-14T03:09:14;19.22;67.47
54540;SHT30;40438;52.992;18.604;2023-03-14T03:11:39;19.23;67.44
54540;SHT30;40438;52.992;18.604;2023-03-14T03:14:06;19.23;67.50
54540;SHT30;40438;52.992;18.604;2023-03-14T03:16:34;19.21;67.47
54540;SHT30;40438;52.992;18.604;2023-03-14T03:19:00;19.26;67.64
54540;SHT30;40438;52.992;18.604;2023-03-14T03:21:26;19.26;67.64
54540;SHT30;40438;52.992;18.604;2023-03-14T03:23:52;19.23;67.40
54540;SHT30;40438;52.992;18.604;2023-03-14T03:26:18;19.26;67.62
54540;SHT30;40438;52.992;18.604;2023-03-14T03:28:44;19.25;67.72
54540;SHT30;40438;52.992;18.604;2023-03-14T03:31:12;19.25;67.61
54540;SHT30;40438;52.992;18.604;2023-03-14T03:33:39;19.32;67.64
54540;SHT30;40438;52.992;18.604;2023-03-14T03:36:07;19.29;67.59
54540;SHT30;40438;52.992;18.604;2023-03-14T03:38:36;19.28;67.80
54540;SHT30;40438;52.992;18.604;2023-03-14T03:41:04;19.29;67.81
54540;SHT30;40438;52.992;18.604;2023-03-14T03:43:30;19.28;67.82
54540;SHT30;40438;52.992;18.604;2023-03-14T03:45:57;19.28;67.81
54540;SHT30;40438;52.992;18.604;2023-03-14T03:48:23;19.26;67.64
54540;SHT30;40438;52.992;18.604;2023-03-14T03:50:50;19.26;67.84
54540;SHT30;40438;52.992;18.604;2023-03-14T03:53:20;19.31;67.73
54540;SHT30;40438;52.992;18.604;2023-03-14T03:55:46;19.26;67.67
54540;SHT30;40438;52.992;18.604;2023-03-14T03:58:11;19.22;67.78
54540;SHT30;40438;52.992;18.604;2023-03-14T04:00:37;19.23;67.57
54540;SHT30;40438;52.992;18.604;2023-03-14T04:03:03;19.49;66.72
54540;SHT30;40438;52.992;18.604;2023-03-14T04:05:29;19.71;65.85
54540;SHT30;40438;52.992;18.604;2023-03-14T04:08:04;20.08;65.10
54540;SHT30;40438;52.992;18.604;2023-03-14T04:10:34;20.38;64.33
54540;SHT30;40438;52.992;18.604;2023-03-14T04:13:11;20.51;63.97
54540;SHT30;40438;52.992;18.604;2023-03-14T04:15:39;20.59;63.58
54540;SHT30;40438;52.992;18.604;2023-03-14T04:18:13;20.64;63.43
54540;SHT30;40438;52.992;18.604;2023-03-14T04:20:41;20.68;63.37
54540;SHT30;40438;52.992;18.604;2023-03-14T04:23:08;20.69;63.38
54540;SHT30;40438;52.992;18.604;2023-03-14T04:25:34;20.69;63.42
54540;SHT30;40438;52.992;18.604;2023-03-14T04:28:03;20.69;63.58
54540;SHT30;40438;52.992;18.604;2023-03-14T04:30:29;20.70;63.44
54540;SHT30;40438;52.992;18.604;2023-03-14T04:33:02;20.72;63.38
54540;SHT30;40438;52.992;18.604;2023-03-14T04:35:30;20.70;63.40
54540;SHT30;40438;52.992;18.604;2023-03-14T04:38:00;20.73;63.36
54540;SHT30;40438;52.992;18.604;2023-03-14T04:40:28;20.73;63.30
54540;SHT30;40438;52.992;18.604;2023-03-14T04:42:59;20.76;63.13
54540;SHT30;40438;52.992;18.604;2023-03-14T04:45:25;20.76;63.02
54540;SHT30;40438;52.992;18.604;2023-03-14T04:47:51;20.77;62.87
54540;SHT30;40438;52.992;18.604;2023-03-14T04:50:19;20.79;62.84
54540;SHT30;40438;52.992;18.604;2023-03-14T04:52:45;20.77;62.87
54540;SHT30;40438;52.992;18.604;2023-03-14T04:55:11;20.77;62.93
54540;SHT30;40438;52.992;18.604;2023-03-14T04:57:39;20.76;62.78
54540;SHT30;40438;52.992;18.604;2023-03-14T05:00:09;20.77;62.91
54540;SHT30;40438;52.992;18.604;2023-03-14T05:03:00;20.79;62.78
54540;SHT30;40438;52.992;18.604;2023-03-14T05:05:49;20.77;62.92
54540;SHT30;40438;52.992;18.604;2023-03-14T05:08:50;20.79;62.85
54540;SHT30;40438;52.992;18.604;2023-03-14T05:11:18;20.79;62.92
54540;SHT30;40438;52.992;18.604;2023-03-14T05:14:08;20.79;62.67
54540;SHT30;40438;52.992;18.604;2023-03-14T05:16:34;20.80;62.45
54540;SHT30;40438;52.992;18.604;2023-03-14T05:19:29;20.82;62.74
54540;SHT30;40438;52.992;18.604;2023-03-14T05:22:13;20.87;62.16
54540;SHT30;40438;52.992;18.604;2023-03-14T05:24:51;20.89;62.08
54540;SHT30;40438;52.992;18.604;2023-03-14T05:27:35;20.89;62.05
54540;SHT30;40438;52.992;18.604;2023-03-14T05:30:23;20.84;61.99
54540;SHT30;40438;52.992;18.604;2023-03-14T05:33:09;20.84;62.24
54540;SHT30;40438;52.992;18.604;2023-03-14T05:35:41;20.84;62.00
54540;SHT30;40438;52.992;18.604;2023-03-14T05:38:26;20.84;61.95
54540;SHT30;40438;52.992;18.604;2023-03-14T05:41:08;20.86;61.81
54540;SHT30;40438;52.992;18.604;2023-03-14T05:43:55;20.86;61.69
54540;SHT30;40438;52.992;18.604;2023-03-14T05:46:36;20.91;61.67
54540;SHT30;40438;52.992;18.604;2023-03-14T05:49:13;20.90;61.58
54540;SHT30;40438;52.992;18.604;2023-03-14T05:51:49;20.93;61.38
54540;SHT30;40438;52.992;18.604;2023-03-14T05:54:41;20.91;61.43
54540;SHT30;40438;52.992;18.604;2023-03-14T05:57:25;20.93;61.21
54540;SHT30;40438;52.992;18.604;2023-03-14T06:00:10;20.91;61.49
54540;SHT30;40438;52.992;18.604;2023-03-14T06:02:48;20.93;61.67
54540;SHT30;40438;52.992;18.604;2023-03-14T06:05:22;20.96;61.32
54540;SHT30;40438;52.992;18.604;2023-03-14T06:07:52;20.91;61.92
54540;SHT30;40438;52.992;18.604;2023-03-14T06:10:18;20.93;61.47
54540;SHT30;40438;52.992;18.604;2023-03-14T06:12:44;20.93;61.29
54540;SHT30;40438;52.992;18.604;2023-03-14T06:15:10;20.93;61.19
54540;SHT30;40438;52.992;18.604;2023-03-14T06:17:37;20.94;60.95
54540;SHT30;40438;52.992;18.604;2023-03-14T06:20:10;20.94;60.70
54540;SHT30;40438;52.992;18.604;2023-03-14T06:22:36;20.94;60.88
54540;SHT30;40438;52.992;18.604;2023-03-14T06:25:02;20.97;61.00
54540;SHT30;40438;52.992;18.604;2023-03-14T06:27:28;20.99;60.80
54540;SHT30;40438;52.992;18.604;2023-03-14T06:29:56;20.99;60.72
54540;SHT30;40438;52.992;18.604;2023-03-14T06:32:22;21.01;60.71
54540;SHT30;40438;52.992;18.604;2023-03-14T06:34:51;21.03;60.72
54540;SHT30;40438;52.992;18.604;2023-03-14T06:37:19;21.03;60.69
54540;SHT30;40438;52.992;18.604;2023-03-14T06:39:46;21.03;60.71
54540;SHT30;40438;52.992;18.604;2023-03-14T06:42:22;21.03;60.57
54540;SHT30;40438;52.992;18.604;2023-03-14T06:44:48;21.01;60.43
54540;SHT30;40438;52.992;18.604;2023-03-14T06:47:14;21.03;60.29
54540;SHT30;40438;52.992;18.604;2023-03-14T06:49:43;21.03;60.29
54540;SHT30;40438;52.992;18.604;2023-03-14T06:52:08;21.03;60.54
54540;SHT30;40438;52.992;18.604;2023-03-14T06:54:36;21.01;60.37
54540;SHT30;40438;52.992;18.604;2023-03-14T06:57:02;21.03;60.38
54540;SHT30;40438;52.992;18.604;2023-03-14T06:59:30;21.03;60.32
54540;SHT30;40438;52.992;18.604;2023-03-14T07:01:56;21.04;60.08
54540;SHT30;40438;52.992;18.604;2023-03-14T07:04:22;21.04;59.97
54540;SHT30;40438;52.992;18.604;2023-03-14T07:06:48;21.06;60.07
54540;SHT30;40438;52.992;18.604;2023-03-14T07:09:14;21.00;59.99
54540;SHT30;40438;52.992;18.604;2023-03-14T07:11:48;21.01;59.96
54540;SHT30;40438;52.992;18.604;2023-03-14T07:14:16;21.06;59.80
54540;SHT30;40438;52.992;18.604;2023-03-14T07:16:41;21.06;59.60
54540;SHT30;40438;52.992;18.604;2023-03-14T07:19:08;21.04;59.78
54540;SHT30;40438;52.992;18.604;2023-03-14T07:21:33;21.03;59.76
54540;SHT30;40438;52.992;18.604;2023-03-14T07:23:59;21.06;59.94
54540;SHT30;40438;52.992;18.604;2023-03-14T07:26:25;21.06;59.65
54540;SHT30;40438;52.992;18.604;2023-03-14T07:28:53;21.07;59.74
54540;SHT30;40438;52.992;18.604;2023-03-14T07:31:21;21.04;59.99
54540;SHT30;40438;52.992;18.604;2023-03-14T07:33:47;21.07;59.35
54540;SHT30;40438;52.992;18.604;2023-03-14T07:36:13;21.04;59.51
54540;SHT30;40438;52.992;18.604;2023-03-14T07:38:42;21.06;59.20
54540;SHT30;40438;52.992;18.604;2023-03-14T07:41:11;21.06;59.43
54540;SHT30;40438;52.992;18.604;2023-03-14T07:43:45;21.06;59.33
54540;SHT30;40438;52.992;18.604;2023-03-14T07:46:12;21.04;59.10
54540;SHT30;40438;52.992;18.604;2023-03-14T07:48:38;21.03;59.27
54540;SHT30;40438;52.992;18.604;2023-03-14T07:51:04;21.04;59.06
54540;SHT30;40438;52.992;18.604;2023-03-14T07:53:31;21.03;58.92
54540;SHT30;40438;52.992;18.604;2023-03-14T07:55:56;21.03;59.08
54540;SHT30;40438;52.992;18.604;2023-03-14T07:58:22;21.03;59.02
54540;SHT30;40438;52.992;18.604;2023-03-14T08:00:48;21.04;58.80
54540;SHT30;40438;52.992;18.604;2023-03-14T08:03:15;21.03;58.77
54540;SHT30;40438;52.992;18.604;2023-03-14T08:05:41;21.01;58.98
54540;SHT30;40438;52.992;18.604;2023-03-14T08:08:07;21.03;59.04
54540;SHT30;40438;52.992;18.604;2023-03-14T08:10:33;21.00;59.06
54540;SHT30;40438;52.992;18.604;2023-03-14T08:13:00;21.00;59.17
54540;SHT30;40438;52.992;18.604;2023-03-14T08:15:27;21.01;59.45
54540;SHT30;40438;52.992;18.604;2023-03-14T08:17:54;21.03;59.24
54540;SHT30;40438;52.992;18.604;2023-03-14T08:20:23;21.01;59.23
54540;SHT30;40438;52.992;18.604;2023-03-14T08:22:49;21.00;59.29
54540;SHT30;40438;52.992;18.604;2023-03-14T08:25:15;21.01;59.44
54540;SHT30;40438;52.992;18.604;2023-03-14T08:27:41;20.99;59.52
54540;SHT30;40438;52.992;18.604;2023-03-14T08:30:09;21.00;59.42
54540;SHT30;40438;52.992;18.604;2023-03-14T08:32:35;21.00;59.62
54540;SHT30;40438;52.992;18.604;2023-03-14T08:35:01;21.03;59.42
54540;SHT30;40438;52.992;18.604;2023-03-14T08:37:28;21.03;59.42
54540;SHT30;40438;52.992;18.604;2023-03-14T08:39:54;21.00;59.46
54540;SHT30;40438;52.992;18.604;2023-03-14T08:42:20;21.01;59.30
54540;SHT30;40438;52.992;18.604;2023-03-14T08:44:46;21.01;59.38
54540;SHT30;40438;52.992;18.604;2023-03-14T08:47:11;21.01;59.52
54540;SHT30;40438;52.992;18.604;2023-03-14T08:49:37;21.01;59.48
54540;SHT30;40438;52.992;18.604;2023-03-14T08:52:03;21.01;59.42
54540;SHT30;40438;52.992;18.604;2023-03-14T08:54:31;21.00;59.45
54540;SHT30;40438;52.992;18.604;2023-03-14T08:56:56;21.00;59.48
54540;SHT30;40438;52.992;18.604;2023-03-14T08:59:22;21.06;59.36
54540;SHT30;40438;52.992;18.604;2023-03-14T09:01:48;21.04;59.34
54540;SHT30;40438;52.992;18.604;2023-03-14T09:04:14;21.03;59.32
54540;SHT30;40438;52.992;18.604;2023-03-14T09:06:40;21.03;59.20
54540;SHT30;40438;52.992;18.604;2023-03-14T09:09:06;21.03;59.16
54540;SHT30;40438;52.992;18.604;2023-03-14T09:11:33;20.99;59.23
54540;SHT30;40438;52.992;18.604;2023-03-14T09:13:59;21.00;59.23
54540;SHT30;40438;52.992;18.604;2023-03-14T09:16:25;20.97;59.10
54540;SHT30;40438;52.992;18.604;2023-03-14T09:18:51;21.00;59.20
54540;SHT30;40438;52.992;18.604;2023-03-14T09:21:16;21.00;59.17
54540;SHT30;40438;52.992;18.604;2023-03-14T09:23:42;21.03;58.92
54540;SHT30;40438;52.992;18.604;2023-03-14T09:26:08;21.03;59.19
54540;SHT30;40438;52.992;18.604;2023-03-14T09:28:35;21.06;59.29
54540;SHT30;40438;52.992;18.604;2023-03-14T09:31:06;21.06;59.59
54540;SHT30;40438;52.992;18.604;2023-03-14T09:33:32;21.04;59.66
54540;SHT30;40438;52.992;18.604;2023-03-14T09:35:58;21.06;59.40
54540;SHT30;40438;52.992;18.604;2023-03-14T09:38:23;21.10;59.18
54540;SHT30;40438;52.992;18.604;2023-03-14T09:40:49;21.13;59.30
54540;SHT30;40438;52.992;18.604;2023-03-14T09:43:16;21.15;59.21
54540;SHT30;40438;52.992;18.604;2023-03-14T09:45:45;21.24;58.95
54540;SHT30;40438;52.992;18.604;2023-03-14T09:48:15;21.48;58.11
54540;SHT30;40438;52.992;18.604;2023-03-14T09:50:43;21.51;58.09
54540;SHT30;40438;52.992;18.604;2023-03-14T09:53:14;21.42;58.22
54540;SHT30;40438;52.992;18.604;2023-03-14T09:55:42;21.32;58.48
54540;SHT30;40438;52.992;18.604;2023-03-14T09:58:11;21.30;58.46
54540;SHT30;40438;52.992;18.604;2023-03-14T10:00:37;21.24;58.62
54540;SHT30;40438;52.992;18.604;2023-03-14T10:03:26;21.24;58.59
54540;SHT30;40438;52.992;18.604;2023-03-14T10:05:52;21.24;58.52
54540;SHT30;40438;52.992;18.604;2023-03-14T10:08:18;21.24;58.71
54540;SHT30;40438;52.992;18.604;2023-03-14T10:10:44;21.22;58.11
54540;SHT30;40438;52.992;18.604;2023-03-14T10:13:15;21.21;58.19
54540;SHT30;40438;52.992;18.604;2023-03-14T10:15:42;21.22;58.41
54540;SHT30;40438;52.992;18.604;2023-03-14T10:18:14;21.31;58.28
54540;SHT30;40438;52.992;18.604;2023-03-14T10:20:41;21.38;58.29
54540;SHT30;40438;52.992;18.604;2023-03-14T10:23:22;21.49;58.18
54540;SHT30;40438;52.992;18.604;2023-03-14T10:26:00;21.59;57.82
54540;SHT30;40438;52.992;18.604;2023-03-14T10:28:27;21.63;57.62
54540;SHT30;40438;52.992;18.604;2023-03-14T10:30:54;21.65;57.57
54540;SHT30;40438;52.992;18.604;2023-03-14T10:33:23;21.66;57.59
54540;SHT30;40438;52.992;18.604;2023-03-14T10:35:53;21.66;57.64
54540;SHT30;40438;52.992;18.604;2023-03-14T10:38:19;21.73;57.67
54540;SHT30;40438;52.992;18.604;2023-03-14T10:40:49;21.63;53.60
54540;SHT30;40438;52.992;18.604;2023-03-14T10:43:18;21.51;56.38
54540;SHT30;40438;52.992;18.604;2023-03-14T10:45:47;21.55;57.29
54540;SHT30;40438;52.992;18.604;2023-03-14T10:48:21;21.62;57.28
54540;SHT30;40438;52.992;18.604;2023-03-14T10:50:55;21.62;57.23
54540;SHT30;40438;52.992;18.604;2023-03-14T10:53:21;21.62;57.25
54540;SHT30;40438;52.992;18.604;2023-03-14T10:55:47;21.61;57.48
54540;SHT30;40438;52.992;18.604;2023-03-14T10:58:24;21.54;57.34
54540;SHT30;40438;52.992;18.604;2023-03-14T11:00:56;21.51;58.24
54540;SHT30;40438;52.992;18.604;2023-03-14T11:03:24;21.51;58.61
54540;SHT30;40438;52.992;18.604;2023-03-14T11:05:56;21.48;58.86
54540;SHT30;40438;52.992;18.604;2023-03-14T11:08:25;21.44;59.10
54540;SHT30;40438;52.992;18.604;2023-03-14T11:10:54;21.41;58.97
54540;SHT30;40438;52.992;18.604;2023-03-14T11:13:25;21.40;58.87
54540;SHT30;40438;52.992;18.604;2023-03-14T11:16:02;21.35;59.27
54540;SHT30;40438;52.992;18.604;2023-03-14T11:18:53;21.30;59.04
54540;SHT30;40438;52.992;18.604;2023-03-14T11:21:25;21.28;59.11
54540;SHT30;40438;52.992;18.604;2023-03-14T11:23:57;21.28;59.13
54540;SHT30;40438;52.992;18.604;2023-03-14T11:26:31;21.20;59.27
54540;SHT30;40438;52.992;18.604;2023-03-14T11:29:07;20.94;58.21
54540;SHT30;40438;52.992;18.604;2023-03-14T11:31:35;20.99;59.14
54540;SHT30;40438;52.992;18.604;2023-03-14T11:34:12;21.01;58.60
54540;SHT30;40438;52.992;18.604;2023-03-14T11:36:44;21.01;59.19
54540;SHT30;40438;52.992;18.604;2023-03-14T11:39:14;21.03;58.82
54540;SHT30;40438;52.992;18.604;2023-03-14T11:41:42;21.04;59.42
54540;SHT30;40438;52.992;18.604;2023-03-14T11:44:16;21.03;59.31
54540;SHT30;40438;52.992;18.604;2023-03-14T11:46:44;21.06;59.25
54540;SHT30;40438;52.992;18.604;2023-03-14T11:49:18;21.03;59.91
54540;SHT30;40438;52.992;18.604;2023-03-14T11:51:52;20.97;59.75
54540;SHT30;40438;52.992;18.604;2023-03-14T11:54:24;21.00;59.47
54540;SHT30;40438;52.992;18.604;2023-03-14T11:56:55;20.94;59.41
54540;SHT30;40438;52.992;18.604;2023-03-14T11:59:27;20.93;59.79
54540;SHT30;40438;52.992;18.604;2023-03-14T12:02:00;20.90;59.69
54540;SHT30;40438;52.992;18.604;2023-03-14T12:04:41;20.90;59.45
54540;SHT30;40438;52.992;18.604;2023-03-14T12:07:14;20.87;58.79
54540;SHT30;40438;52.992;18.604;2023-03-14T12:09:43;20.77;58.81
54540;SHT30;40438;52.992;18.604;2023-03-14T12:12:13;20.73;58.94
54540;SHT30;40438;52.992;18.604;2023-03-14T12:14:45;20.73;58.67
54540;SHT30;40438;52.992;18.604;2023-03-14T12:17:19;20.72;58.72
54540;SHT30;40438;52.992;18.604;2023-03-14T12:19:47;20.69;58.61
54540;SHT30;40438;52.992;18.604;2023-03-14T12:22:28;20.64;58.53
54540;SHT30;40438;52.992;18.604;2023-03-14T12:25:00;20.64;58.34
54540;SHT30;40438;52.992;18.604;2023-03-14T12:27:47;20.66;58.49
54540;SHT30;40438;52.992;18.604;2023-03-14T12:30:27;20.63;58.81
54540;SHT30;40438;52.992;18.604;2023-03-14T12:33:20;20.75;58.50
54540;SHT30;40438;52.992;18.604;2023-03-14T12:35:49;20.89;58.74
54540;SHT30;40438;52.992;18.604;2023-03-14T12:38:17;20.94;58.48
54540;SHT30;40438;52.992;18.604;2023-03-14T12:40:52;21.03;58.34
54540;SHT30;40438;52.992;18.604;2023-03-14T12:43:27;21.04;58.43
54540;SHT30;40438;52.992;18.604;2023-03-14T12:46:08;21.08;58.56
54540;SHT30;40438;52.992;18.604;2023-03-14T12:48:34;21.45;59.09
54540;SHT30;40438;52.992;18.604;2023-03-14T12:51:03;21.47;57.91
54540;SHT30;40438;52.992;18.604;2023-03-14T12:57:05;21.58;57.00
54540;SHT30;40438;52.992;18.604;2023-03-14T12:59:35;21.44;57.15
54540;SHT30;40438;52.992;18.604;2023-03-14T13:02:17;21.27;57.39
54540;SHT30;40438;52.992;18.604;2023-03-14T13:04:46;21.26;57.07
54540;SHT30;40438;52.992;18.604;2023-03-14T13:07:30;21.30;56.49
54540;SHT30;40438;52.992;18.604;2023-03-14T13:10:01;20.22;49.11
54540;SHT30;40438;52.992;18.604;2023-03-14T13:12:29;19.32;49.89
54540;SHT30;40438;52.992;18.604;2023-03-14T13:14:58;19.23;51.00
54540;SHT30;40438;52.992;18.604;2023-03-14T13:17:27;19.05;51.66
54540;SHT30;40438;52.992;18.604;2023-03-14T13:19:55;18.92;51.43
54540;SHT30;40438;52.992;18.604;2023-03-14T13:22:25;19.33;52.35
54540;SHT30;40438;52.992;18.604;2023-03-14T13:24:58;20.26;52.63
54540;SHT30;40438;52.992;18.604;2023-03-14T13:27:24;20.68;52.82
54540;SHT30;40438;52.992;18.604;2023-03-14T13:29:51;20.77;52.96
54540;SHT30;40438;52.992;18.604;2023-03-14T13:32:20;20.86;53.01
54540;SHT30;40438;52.992;18.604;2023-03-14T13:34:46;20.91;52.98
54540;SHT30;40438;52.992;18.604;2023-03-14T13:37:16;20.99;53.35
54540;SHT30;40438;52.992;18.604;2023-03-14T13:39:49;21.03;53.57
54540;SHT30;40438;52.992;18.604;2023-03-14T13:42:15;21.06;53.70
54540;SHT30;40438;52.992;18.604;2023-03-14T13:44:42;21.07;53.75
54540;SHT30;40438;52.992;18.604;2023-03-14T13:47:13;21.14;53.73
54540;SHT30;40438;52.992;18.604;2023-03-14T13:49:40;21.22;53.93
54540;SHT30;40438;52.992;18.604;2023-03-14T13:52:25;21.26;53.98
54540;SHT30;40438;52.992;18.604;2023-03-14T13:54:55;21.30;53.84
54540;SHT30;40438;52.992;18.604;2023-03-14T13:57:22;21.27;54.11
54540;SHT30;40438;52.992;18.604;2023-03-14T13:59:59;21.22;54.31
54540;SHT30;40438;52.992;18.604;2023-03-14T14:02:25;21.21;54.42
54540;SHT30;40438;52.992;18.604;2023-03-14T14:04:52;21.26;54.67
54540;SHT30;40438;52.992;18.604;2023-03-14T14:07:18;21.30;54.46
54540;SHT30;40438;52.992;18.604;2023-03-14T14:09:46;21.28;54.46
54540;SHT30;40438;52.992;18.604;2023-03-14T14:12:16;21.22;54.63
54540;SHT30;40438;52.992;18.604;2023-03-14T14:14:44;21.20;54.80
54540;SHT30;40438;52.992;18.604;2023-03-14T14:17:13;21.22;54.86
54540;SHT30;40438;52.992;18.604;2023-03-14T14:19:41;21.35;54.64
54540;SHT30;40438;52.992;18.604;2023-03-14T14:22:08;21.30;54.76
54540;SHT30;40438;52.992;18.604;2023-03-14T14:24:36;21.40;54.96
54540;SHT30;40438;52.992;18.604;2023-03-14T14:27:08;21.38;55.01
54540;SHT30;40438;52.992;18.604;2023-03-14T14:29:36;21.40;55.07
54540;SHT30;40438;52.992;18.604;2023-03-14T14:32:08;21.44;54.98
54540;SHT30;40438;52.992;18.604;2023-03-14T14:34:39;21.44;55.01
54540;SHT30;40438;52.992;18.604;2023-03-14T14:37:05;21.45;55.15
54540;SHT30;40438;52.992;18.604;2023-03-14T14:39:31;21.45;55.22
54540;SHT30;40438;52.992;18.604;2023-03-14T14:41:57;21.47;55.34
54540;SHT30;40438;52.992;18.604;2023-03-14T14:44:28;21.40;55.63
54540;SHT30;40438;52.992;18.604;2023-03-14T14:46:56;21.42;55.40
54540;SHT30;40438;52.992;18.604;2023-03-14T14:49:28;21.40;55.94
54540;SHT30;40438;52.992;18.604;2023-03-14T14:52:00;21.44;55.85
54540;SHT30;40438;52.992;18.604;2023-03-14T14:54:34;21.41;55.94
54540;SHT30;40438;52.992;18.604;2023-03-14T14:57:03;21.48;56.09
54540;SHT30;40438;52.992;18.604;2023-03-14T14:59:29;21.58;55.94
54540;SHT30;40438;52.992;18.604;2023-03-14T15:01:57;20.46;49.61
54540;SHT30;40438;52.992;18.604;2023-03-14T15:04:23;19.42;51.26
54540;SHT30;40438;52.992;18.604;2023-03-14T15:06:50;19.21;50.86
54540;SHT30;40438;52.992;18.604;2023-03-14T15:09:16;19.11;51.11
54540;SHT30;40438;52.992;18.604;2023-03-14T15:11:42;18.94;51.30
54540;SHT30;40438;52.992;18.604;2023-03-14T15:14:07;18.80;51.02
54540;SHT30;40438;52.992;18.604;2023-03-14T15:16:33;18.43;51.75
54540;SHT30;40438;52.992;18.604;2023-03-14T15:19:02;18.57;51.65
54540;SHT30;40438;52.992;18.604;2023-03-14T15:21:28;18.22;52.56
54540;SHT30;40438;52.992;18.604;2023-03-14T15:23:54;18.17;52.18
54540;SHT30;40438;52.992;18.604;2023-03-14T15:26:22;18.19;52.46
54540;SHT30;40438;52.992;18.604;2023-03-14T15:28:48;18.74;52.63
54540;SHT30;40438;52.992;18.604;2023-03-14T15:31:15;19.93;52.56
54540;SHT30;40438;52.992;18.604;2023-03-14T15:33:42;20.60;53.53
54540;SHT30;40438;52.992;18.604;2023-03-14T15:36:19;20.84;54.58